Allen's Hourly Summary for Tuesday, July 10, 2018
Hour Temp
(f)
RH
(%)
Solar Rad.
(MJ/m2)
Rainfall
(in)
Wind
(mph)
7/10/2018 12:00 AM 76 78 0 0 1.04
7/10/2018 1:00 AM 75 81 0 0 2.2
7/10/2018 2:00 AM 74 83 0 0 0.33
7/10/2018 3:00 AM 73 89 0 0 0
7/10/2018 4:00 AM 72 91 0 0 0.02
7/10/2018 5:00 AM 73 91 0 0 0.55
7/10/2018 6:00 AM 72 91 0 0 0.04
7/10/2018 7:00 AM 72 92 0.02 0 0.1
7/10/2018 8:00 AM 72 89 0.2 0 0.14
7/10/2018 9:00 AM 75 73 0.91 0 0.7
7/10/2018 10:00 AM 81 63 1.99 0 1.05
7/10/2018 11:00 AM 84 53 2.52 0 1.19
7/10/2018 12:00 PM 87 48 2.95 0 1.11
7/10/2018 1:00 PM 88 45 3.13 0 1.48
7/10/2018 2:00 PM 89 42 2.68 0 1.68
7/10/2018 3:00 PM 90 41 2.68 0 2.46
7/10/2018 4:00 PM 91 41 2.01 0 2.44
7/10/2018 5:00 PM 84 42 0.41 0 2.57
7/10/2018 6:00 PM 81 58 0.53 0 1.6
7/10/2018 7:00 PM 83 56 0.48 0 0.22
7/10/2018 8:00 PM 82 56 0.21 0 0.01
7/10/2018 9:00 PM 80 61 0.02 0 0.02
7/10/2018 10:00 PM 78 70 0 0 0
7/10/2018 11:00 PM 77 70 0 0 0
Data Summary 79 66 20.74 0.00 0.87